Charles Burton — WDF2455 — position and weather

sailwx.info

Track history (hours):
 
Tides and Currents Weather Stations Pressure Air Temp Water Temp Dewpoint Dewpoint Depression Visibility Wind Speed Wind Dir Waves Ship Positions

Charles Burton

Owner: Vane Line Bunkering, Inc., Philadelphia, PA. More information available from US FCC via Universal Licensing System and Coast Guard Vessel Documentation Center.

Last reported at 2018-Feb-25 23:30 UTC. Time now 2018-Feb-25 23:53 UTC.
Position N 39°54' W 075°12'.

Length 32 m; draft 3 m.

Type: Tow > 200 m length. MMSI: 367428270.

Date/timePositionNaut miles runAvg speedWind from/ knotsBaromVisibWave heightAir tempDewpointWater temp
2018-Feb-25 23:30N 39°54' W 075°12'0 0.0
2018-Feb-25 23:00N 39°54' W 075°12'0 0.0
2018-Feb-25 22:30N 39°54' W 075°12'0 0.0
2018-Feb-25 22:00N 39°54' W 075°12'0 0.0
2018-Feb-25 21:30N 39°54' W 075°12'0 0.0
2018-Feb-25 21:00N 39°54' W 075°12'0 0.0
2018-Feb-25 20:30N 39°54' W 075°12'0 0.0
2018-Feb-25 20:00N 39°54' W 075°12'0 0.0
2018-Feb-25 19:30N 39°54' W 075°12'0 0.0
2018-Feb-25 19:01N 39°54' W 075°12'0 0.0
2018-Feb-25 18:30N 39°54' W 075°12'0 0.0
2018-Feb-25 18:00N 39°54' W 075°12'0 0.0
2018-Feb-25 17:30N 39°54' W 075°12'0 0.0
2018-Feb-25 17:00N 39°54' W 075°12'0 0.0
2018-Feb-25 16:30N 39°54' W 075°12'0 0.0
2018-Feb-25 16:00N 39°54' W 075°12'0 0.0
2018-Feb-25 15:30N 39°54' W 075°12'0 0.0
2018-Feb-25 15:00N 39°54' W 075°12'0 0.0
2018-Feb-25 14:30N 39°54' W 075°12'0 0.0
2018-Feb-25 14:00N 39°54' W 075°12'0 0.0
2018-Feb-25 13:30N 39°54' W 075°12'0 0.0
2018-Feb-25 13:00N 39°54' W 075°12'0 0.0
2018-Feb-25 12:30N 39°54' W 075°12'2 4.6
2018-Feb-25 12:00N 39°53' W 075°09'3 6.9
2018-Feb-25 11:30N 39°56' W 075°08'4 7.0
2018-Feb-25 11:00N 39°59' W 075°05'1 1.3
2018-Feb-25 10:30N 39°59' W 075°04'0 0.0
2018-Feb-25 10:00N 39°59' W 075°04'0 0.0
2018-Feb-25 09:30N 39°59' W 075°04'0 0.0
2018-Feb-25 09:00N 39°59' W 075°04'1 1.1
2018-Feb-25 08:30N 39°59' W 075°05'3 6.7
2018-Feb-25 08:00N 39°56' W 075°08'4 7.1
2018-Feb-25 07:30N 39°53' W 075°09'3 5.1
2018-Feb-25 07:01N 39°54' W 075°12'0 0.1
2018-Feb-25 06:30N 39°54' W 075°12'0 0.0
2018-Feb-25 06:00N 39°54' W 075°12'0 0.0
2018-Feb-25 05:30N 39°54' W 075°12'0 0.0
2018-Feb-25 05:01N 39°54' W 075°12'0 0.0
2018-Feb-25 04:31N 39°54' W 075°12'0 0.0
2018-Feb-25 04:00N 39°54' W 075°12'0 0.0
2018-Feb-25 03:30N 39°54' W 075°12'0 0.0
2018-Feb-25 03:00N 39°54' W 075°12'0 0.0
2018-Feb-25 02:31N 39°54' W 075°12'0 0.0
2018-Feb-25 02:00N 39°54' W 075°12'0 0.0
2018-Feb-25 01:30N 39°54' W 075°12'0 0.0
2018-Feb-25 01:00N 39°54' W 075°12'0 0.0
2018-Feb-25 00:30N 39°54' W 075°12'0 0.0
2018-Feb-25 00:00N 39°54' W 075°12'0 0.0
2018-Feb-24 23:30N 39°54' W 075°12'0 0.0
2018-Feb-24 23:00N 39°54' W 075°12'0 0.0
2018-Feb-24 22:30N 39°54' W 075°12'0 0.0
2018-Feb-24 22:00N 39°54' W 075°12'0 0.0
2018-Feb-24 21:30N 39°54' W 075°12'0 0.0
2018-Feb-24 21:00N 39°54' W 075°12'0 0.0
2018-Feb-24 20:30N 39°54' W 075°12'0 0.0
2018-Feb-24 20:00N 39°54' W 075°12'0 0.0
2018-Feb-24 19:30N 39°54' W 075°12'0 0.0
2018-Feb-24 19:00N 39°54' W 075°12'0 0.0
2018-Feb-24 18:30N 39°54' W 075°12'0 0.0
2018-Feb-24 18:00N 39°54' W 075°12'0 0.0
2018-Feb-24 17:30N 39°54' W 075°12'0 0.0
2018-Feb-24 17:00N 39°54' W 075°12'0 0.0
2018-Feb-24 16:30N 39°54' W 075°12'0 0.1
2018-Feb-24 16:00N 39°54' W 075°12'0 0.1
2018-Feb-24 15:30N 39°54' W 075°12'0 0.0
2018-Feb-24 15:00N 39°54' W 075°12'0 0.2
2018-Feb-24 14:27N 39°54' W 075°12'0 0.0
2018-Feb-24 14:00N 39°54' W 075°12'0 1.0
2018-Feb-24 13:30N 39°54' W 075°12'0 0.3
2018-Feb-24 13:00N 39°54' W 075°12'0 0.0
2018-Feb-24 12:30N 39°54' W 075°12'0 0.0
2018-Feb-24 12:00N 39°54' W 075°12'0 0.0
2018-Feb-24 11:30N 39°54' W 075°12'0 0.0
2018-Feb-24 11:00N 39°54' W 075°12'0 0.0
2018-Feb-24 10:30N 39°54' W 075°12'0 0.0
2018-Feb-24 10:00N 39°54' W 075°12'0 0.0
2018-Feb-24 09:30N 39°54' W 075°12'1 1.3
2018-Feb-24 09:00N 39°54' W 075°12'2 4.6
2018-Feb-24 08:30N 39°52' W 075°14'5 9.6
2018-Feb-24 08:00N 39°51' W 075°20'4 8.1
2018-Feb-24 07:30N 39°49' W 075°24'0 0.1
2018-Feb-24 07:00N 39°49' W 075°24'0 0.0
2018-Feb-24 06:30N 39°49' W 075°24'0 0.0
2018-Feb-24 06:00N 39°49' W 075°24'0 0.0
2018-Feb-24 05:30N 39°49' W 075°24'0 0.0
2018-Feb-24 05:00N 39°49' W 075°24'0 0.0
2018-Feb-24 04:30N 39°49' W 075°24'0 0.0
2018-Feb-24 04:00N 39°49' W 075°24'0 0.0
2018-Feb-24 03:30N 39°49' W 075°24'0 0.0
2018-Feb-24 03:00N 39°49' W 075°24'0 0.5
2018-Feb-24 02:30N 39°48' W 075°24'0 0.6
2018-Feb-24 02:01N 39°48' W 075°25'4 7.7
2018-Feb-24 01:30N 39°51' W 075°21'5 9.2
2018-Feb-24 01:00N 39°51' W 075°15'1 1.6
2018-Feb-24 00:30N 39°51' W 075°14'0 0.0
2018-Feb-24 00:01N 39°51' W 075°14'0 0.0
2018-Feb-23 23:30N 39°51' W 075°14'0 0.0
2018-Feb-23 23:00N 39°51' W 075°14'1 1.2
2018-Feb-23 22:30N 39°52' W 075°13'2 4.3
2018-Feb-23 22:00N 39°54' W 075°13'0 0.7
2018-Feb-23 21:30N 39°54' W 075°13'1 2.2
2018-Feb-23 21:00N 39°53' W 075°12'5 9.1
2018-Feb-23 20:30N 39°51' W 075°18'5 9.2
2018-Feb-23 20:00N 39°49' W 075°23'1 1.2
2018-Feb-23 19:30N 39°49' W 075°24'0 0.0
2018-Feb-23 19:00N 39°49' W 075°24'0 0.0
2018-Feb-23 18:30N 39°49' W 075°24'0 0.0
2018-Feb-23 18:00N 39°49' W 075°24'0 0.1
2018-Feb-23 17:30N 39°49' W 075°24'0 0.0
2018-Feb-23 17:00N 39°49' W 075°24'0 0.0
2018-Feb-23 16:30N 39°49' W 075°24'0 0.0
2018-Feb-23 16:00N 39°49' W 075°24'0 0.0
2018-Feb-23 15:30N 39°49' W 075°24'0 0.0
2018-Feb-23 15:00N 39°49' W 075°24'0 0.0
2018-Feb-23 14:27N 39°49' W 075°24'0 0.0
2018-Feb-23 13:59N 39°49' W 075°24'0 0.0
2018-Feb-23 13:30N 39°49' W 075°24'510.3
2018-Feb-23 13:00N 39°51' W 075°17'5 9.7
2018-Feb-23 12:30N 39°53' W 075°12'1 1.6
2018-Feb-23 12:00N 39°54' W 075°12'0 0.0
2018-Feb-23 11:30N 39°54' W 075°12'0 0.0
2018-Feb-23 11:00N 39°54' W 075°12'0 0.0
2018-Feb-23 10:30N 39°54' W 075°12'0 0.0
2018-Feb-23 10:00N 39°54' W 075°12'0 0.0
2018-Feb-23 09:30N 39°54' W 075°12'0 0.0
2018-Feb-23 09:00N 39°54' W 075°12'0 0.0
2018-Feb-23 08:30N 39°54' W 075°12'0 0.0
2018-Feb-23 08:00N 39°54' W 075°12'1 2.2
2018-Feb-23 07:30N 39°55' W 075°13'0 0.0
2018-Feb-23 07:00N 39°55' W 075°13'0 0.0
2018-Feb-23 06:30N 39°55' W 075°13'0 0.0
2018-Feb-23 06:00N 39°55' W 075°13'0 0.0
2018-Feb-23 05:30N 39°55' W 075°13'0 0.0
2018-Feb-23 05:00N 39°55' W 075°13'0 0.0
2018-Feb-23 04:30N 39°55' W 075°13'0 0.1
2018-Feb-23 04:01N 39°55' W 075°13'1 2.2
2018-Feb-23 03:30N 39°54' W 075°12'1 2.0
2018-Feb-23 03:00N 39°53' W 075°11'2 3.0
2018-Feb-23 02:29N 39°53' W 075°09'2 4.8
2018-Feb-23 02:01N 39°54' W 075°12'0 0.2
2018-Feb-23 01:30N 39°54' W 075°12'0 0.0
2018-Feb-23 01:00N 39°54' W 075°12'0 0.0
2018-Feb-23 00:30N 39°54' W 075°12'0 0.0
2018-Feb-23 00:00N 39°54' W 075°12'0 0.0
2018-Feb-22 23:30N 39°54' W 075°12'0 0.1
2018-Feb-22 23:00N 39°54' W 075°12'0 0.0
2018-Feb-22 22:30N 39°54' W 075°12'0 0.0
2018-Feb-22 22:00N 39°54' W 075°12'0 0.0
2018-Feb-22 21:30N 39°54' W 075°12'0 0.0
2018-Feb-22 21:00N 39°54' W 075°12'0 0.0
2018-Feb-22 20:30N 39°54' W 075°12'0 0.0
2018-Feb-22 20:00N 39°54' W 075°12'0 0.0
2018-Feb-22 19:30N 39°54' W 075°12'0 0.0
2018-Feb-22 19:00N 39°54' W 075°12'0 0.0
2018-Feb-22 18:30N 39°54' W 075°12'0 0.0
2018-Feb-22 18:00N 39°54' W 075°12'0 0.0
2018-Feb-22 17:30N 39°54' W 075°12'0 0.0
2018-Feb-22 17:00N 39°54' W 075°12'0 0.0
2018-Feb-22 16:30N 39°54' W 075°12'0 0.0
2018-Feb-22 16:00N 39°54' W 075°12'0 0.0
2018-Feb-22 15:30N 39°54' W 075°12'0 0.0
2018-Feb-22 15:00N 39°54' W 075°12'0 0.0
2018-Feb-22 14:30N 39°54' W 075°12'0 0.0
2018-Feb-22 14:00N 39°54' W 075°12'0 0.0
2018-Feb-22 13:30N 39°54' W 075°12'0 0.0
2018-Feb-22 13:00N 39°54' W 075°12'0 0.0
2018-Feb-22 12:30N 39°54' W 075°12'0 0.0
2018-Feb-22 12:00N 39°54' W 075°12'0 0.0
2018-Feb-22 11:30N 39°54' W 075°12'0 0.0
2018-Feb-22 11:00N 39°54' W 075°12'0 0.0
2018-Feb-22 10:30N 39°54' W 075°12'0 0.0
2018-Feb-22 10:00N 39°54' W 075°12'0 0.0
2018-Feb-22 09:30N 39°54' W 075°12'0 0.0
2018-Feb-22 09:00N 39°54' W 075°12'0 0.0
2018-Feb-22 08:30N 39°54' W 075°12'0 0.0
2018-Feb-22 08:00N 39°54' W 075°12'0 0.0
2018-Feb-22 07:30N 39°54' W 075°12'0 0.0
2018-Feb-22 07:00N 39°54' W 075°12'0 0.0
2018-Feb-22 06:30N 39°54' W 075°12'0 0.0
2018-Feb-22 06:01N 39°54' W 075°12'0 0.0
2018-Feb-22 05:30N 39°54' W 075°12'0 0.0
2018-Feb-22 05:00N 39°54' W 075°12'0 0.0
2018-Feb-22 04:30N 39°54' W 075°12'0 0.0
2018-Feb-22 04:00N 39°54' W 075°12'0 0.0
2018-Feb-22 03:30N 39°54' W 075°12'0 0.0
2018-Feb-22 03:00N 39°54' W 075°12'0 0.0
2018-Feb-22 02:30N 39°54' W 075°12'0 0.0
2018-Feb-22 02:00N 39°54' W 075°12'0 0.0
2018-Feb-22 01:30N 39°54' W 075°12'0 0.0
2018-Feb-22 01:00N 39°54' W 075°12'0 0.0
2018-Feb-22 00:30N 39°54' W 075°12'0 0.0
2018-Feb-22 00:00N 39°54' W 075°12'0 0.0
2018-Feb-21 23:30N 39°54' W 075°12'0 0.0
2018-Feb-21 23:00N 39°54' W 075°12'0 0.0
2018-Feb-21 22:30N 39°54' W 075°12'0 0.0
2018-Feb-21 22:00N 39°54' W 075°12'0 0.0
2018-Feb-21 21:30N 39°54' W 075°12'0 0.0
2018-Feb-21 21:00N 39°54' W 075°12'0 0.0
2018-Feb-21 20:30N 39°54' W 075°12'0 0.0
2018-Feb-21 20:00N 39°54' W 075°12'0 0.1
2018-Feb-21 19:30N 39°54' W 075°12'0 0.1
2018-Feb-21 19:00N 39°54' W 075°12'0 0.0
2018-Feb-21 18:30N 39°54' W 075°12'1 1.1
2018-Feb-21 18:00N 39°54' W 075°12'0 0.0
2018-Feb-21 17:30N 39°54' W 075°12'0 0.0
2018-Feb-21 17:00N 39°54' W 075°12'1 2.9
2018-Feb-21 16:30N 39°52' W 075°13'0 0.1
2018-Feb-21 16:01N 39°52' W 075°12'1 1.1
2018-Feb-21 15:31N 39°53' W 075°12'1 2.0
2018-Feb-21 15:00N 39°54' W 075°12'0 0.0
2018-Feb-21 14:30N 39°54' W 075°12'0 0.0
2018-Feb-21 14:00N 39°54' W 075°12'0 0.1
2018-Feb-21 13:30N 39°54' W 075°12'0 0.1
2018-Feb-21 13:00N 39°54' W 075°12'1 1.2
2018-Feb-21 12:31N 39°54' W 075°12'0 0.2
2018-Feb-21 12:00N 39°54' W 075°12'0 0.0
2018-Feb-21 11:31N 39°54' W 075°12'1 1.2
2018-Feb-21 11:00N 39°54' W 075°12'0 0.0
2018-Feb-21 10:30N 39°54' W 075°12'0 0.0
2018-Feb-21 10:00N 39°54' W 075°12'0 0.0
2018-Feb-21 09:31N 39°54' W 075°12'0 0.1
2018-Feb-21 09:00N 39°54' W 075°12'1 2.1
2018-Feb-21 08:30N 39°53' W 075°12'2 4.9
2018-Feb-21 08:00N 39°53' W 075°08'1 2.4
2018-Feb-21 07:30N 39°54' W 075°08'3 5.7
2018-Feb-21 07:00N 39°53' W 075°11'1 1.6
2018-Feb-21 06:30N 39°54' W 075°12'0 0.0
2018-Feb-21 06:00N 39°54' W 075°12'0 0.0
2018-Feb-21 05:30N 39°54' W 075°12'0 0.0
2018-Feb-21 05:00N 39°54' W 075°12'0 0.0
2018-Feb-21 04:30N 39°54' W 075°12'0 0.0
2018-Feb-21 04:00N 39°54' W 075°12'0 0.0
2018-Feb-21 03:30N 39°54' W 075°12'0 0.0
2018-Feb-21 03:00N 39°54' W 075°12'0 0.0
2018-Feb-21 02:30N 39°54' W 075°12'0 0.0
2018-Feb-21 02:00N 39°54' W 075°12'0 0.0
2018-Feb-21 01:30N 39°54' W 075°12'0 0.0
2018-Feb-21 01:00N 39°54' W 075°12'0 0.0
2018-Feb-21 00:31N 39°54' W 075°12'1 1.4
2018-Feb-21 00:01N 39°54' W 075°12'3 5.9
2018-Feb-20 23:30N 39°53' W 075°09'5 9.7
2018-Feb-20 23:00N 39°58' W 075°08'2 3.4
2018-Feb-20 22:30N 39°59' W 075°06'3 6.5
2018-Feb-20 22:00N 39°56' W 075°08'3 6.3
2018-Feb-20 21:29N 39°53' W 075°10'2 4.4
2018-Feb-20 21:00N 39°54' W 075°12'0 0.0
2018-Feb-20 20:30N 39°54' W 075°12'1 1.3
2018-Feb-20 20:00N 39°53' W 075°12'2 3.5
2018-Feb-20 19:29N 39°53' W 075°09'2 3.3
2018-Feb-20 19:00N 39°54' W 075°08'0 0.0
2018-Feb-20 18:30N 39°54' W 075°08'0 0.0
2018-Feb-20 18:00N 39°54' W 075°08'0 0.1
2018-Feb-20 17:30N 39°54' W 075°08'3 6.3
2018-Feb-20 17:00N 39°57' W 075°08'3 6.8
2018-Feb-20 16:30N 39°59' W 075°04'0 0.9
2018-Feb-20 16:00N 39°59' W 075°05'4 7.0
2018-Feb-20 15:30N 39°56' W 075°08'4 7.2
2018-Feb-20 15:00N 39°53' W 075°09'2 4.3
2018-Feb-20 14:30N 39°53' W 075°12'1 1.3
2018-Feb-20 14:00N 39°54' W 075°12'0 0.0
2018-Feb-20 13:30N 39°54' W 075°12'1 1.1
2018-Feb-20 13:00N 39°53' W 075°12'2 4.5
2018-Feb-20 12:30N 39°52' W 075°14'0 0.7
2018-Feb-20 12:00N 39°51' W 075°14'0 0.0
2018-Feb-20 11:30N 39°51' W 075°14'0 0.0
2018-Feb-20 11:00N 39°51' W 075°14'0 0.1
2018-Feb-20 10:30N 39°51' W 075°14'0 0.3
2018-Feb-20 10:01N 39°51' W 075°14'0 0.1
2018-Feb-20 09:30N 39°51' W 075°14'0 0.1
2018-Feb-20 09:00N 39°51' W 075°14'2 3.7
2018-Feb-20 08:30N 39°51' W 075°16'3 6.9
2018-Feb-20 08:00N 39°51' W 075°20'3 6.9
2018-Feb-20 07:30N 39°49' W 075°24'4 7.1
2018-Feb-20 07:01N 39°47' W 075°28'4 8.7
2018-Feb-20 06:30N 39°43' W 075°31'4 8.7
2018-Feb-20 06:00N 39°39' W 075°33'3 6.9
2018-Feb-20 05:30N 39°35' W 075°34'4 8.7
2018-Feb-20 05:00N 39°31' W 075°33'4 8.9
2018-Feb-20 04:30N 39°27' W 075°33'5 9.3
2018-Feb-20 04:00N 39°23' W 075°29'5 9.3
2018-Feb-20 03:30N 39°20' W 075°25'4 8.9
2018-Feb-20 03:00N 39°17' W 075°21'4 8.5
2018-Feb-20 02:30N 39°13' W 075°18'6 8.6
2018-Feb-20 01:52N 39°08' W 075°14'64 4.7
2018-Feb-19 12:04N 39°41' W 074°02'1 7.4
2018-Feb-19 11:57N 39°41' W 074°02'5 7.3
2018-Feb-19 11:16N 39°46' W 074°00'44 6.9
2018-Feb-19 04:49N 40°31' W 073°58'3 7.0
2018-Feb-19 04:26N 40°32' W 074°01'3 6.6
2018-Feb-19 03:57N 40°35' W 074°02'2 4.7
2018-Feb-19 03:30N 40°37' W 074°03'1 1.7
2018-Feb-19 03:00N 40°38' W 074°04'3 6.4
2018-Feb-19 02:30N 40°39' W 074°08'3 6.2
2018-Feb-19 02:00N 40°38' W 074°12'2 0.3
2018-Feb-18 18:46N 40°36' W 074°12'0 0.0
2018-Feb-18 18:26N 40°36' W 074°12'0 0.0
2018-Feb-18 17:55N 40°36' W 074°12'0 0.0
2018-Feb-18 13:17N 40°36' W 074°12'0 0.0
2018-Feb-18 11:16N 40°36' W 074°12'0 0.0
2018-Feb-18 10:56N 40°36' W 074°12'0 0.0
2018-Feb-18 08:11N 40°36' W 074°12'0 0.0
2018-Feb-18 05:24N 40°36' W 074°12'3 0.7
2018-Feb-18 01:22N 40°34' W 074°14'0 0.0
2018-Feb-18 00:27N 40°34' W 074°14'0 0.0
2018-Feb-17 23:11N 40°34' W 074°14'0 0.0
2018-Feb-17 22:50N 40°34' W 074°14'0 0.0
2018-Feb-17 22:20N 40°34' W 074°14'0 0.0
2018-Feb-17 22:00N 40°34' W 074°14'0 0.0
2018-Feb-17 14:59N 40°34' W 074°14'0 0.2
2018-Feb-17 14:27N 40°33' W 074°14'0 0.1
2018-Feb-17 13:58N 40°33' W 074°14'0 0.3
2018-Feb-17 13:29N 40°34' W 074°14'0 0.0
2018-Feb-17 12:17N 40°34' W 074°14'0 0.0
2018-Feb-17 11:59N 40°34' W 074°14'0 0.0
2018-Feb-17 07:49N 40°34' W 074°14'0 0.0
2018-Feb-17 07:28N 40°34' W 074°14'0 0.2
2018-Feb-17 06:50N 40°33' W 074°14'0 0.0
2018-Feb-17 06:20N 40°33' W 074°14'0 0.0
2018-Feb-17 05:53N 40°33' W 074°14'0 0.0
2018-Feb-17 05:21N 40°33' W 074°14'0 0.1
2018-Feb-17 02:22N 40°33' W 074°14'9 3.7
2018-Feb-17 00:04N 40°29' W 074°05'1 6.4
2018-Feb-16 23:52N 40°28' W 074°03'2 6.5
2018-Feb-16 23:30N 40°29' W 074°00'4 6.0
2018-Feb-16 22:53N 40°27' W 073°56'102 5.1
2018-Feb-16 02:58N 39°02' W 075°09'3 6.8
2018-Feb-16 02:29N 39°05' W 075°11'3 6.2
2018-Feb-16 01:59N 39°07' W 075°13'3 6.0
2018-Feb-16 01:30N 39°10' W 075°15'  
Track history (hours):
 
Tides and Currents Weather Stations Pressure Air Temp Water Temp Dewpoint Dewpoint Depression Visibility Wind Speed Wind Dir Waves Ship Positions

Charles Burton

Owner: Vane Line Bunkering, Inc., Philadelphia, PA. More information available from US FCC via Universal Licensing System and Coast Guard Vessel Documentation Center.

Last reported at 2018-Feb-25 23:30 UTC. Time now 2018-Feb-25 23:53 UTC.
Position N 39°54' W 075°12'.

Length 32 m; draft 3 m.

Type: Tow > 200 m length. MMSI: 367428270.

Date/timePositionNaut miles runAvg speedWind from/ knotsBaromVisibWave heightAir tempDewpointWater temp
2018-Feb-25 23:30N 39°54' W 075°12'0 0.0
2018-Feb-25 23:00N 39°54' W 075°12'0 0.0
2018-Feb-25 22:30N 39°54' W 075°12'0 0.0
2018-Feb-25 22:00N 39°54' W 075°12'0 0.0
2018-Feb-25 21:30N 39°54' W 075°12'0 0.0
2018-Feb-25 21:00N 39°54' W 075°12'0 0.0
2018-Feb-25 20:30N 39°54' W 075°12'0 0.0
2018-Feb-25 20:00N 39°54' W 075°12'0 0.0
2018-Feb-25 19:30N 39°54' W 075°12'0 0.0
2018-Feb-25 19:01N 39°54' W 075°12'0 0.0
2018-Feb-25 18:30N 39°54' W 075°12'0 0.0
2018-Feb-25 18:00N 39°54' W 075°12'0 0.0
2018-Feb-25 17:30N 39°54' W 075°12'0 0.0
2018-Feb-25 17:00N 39°54' W 075°12'0 0.0
2018-Feb-25 16:30N 39°54' W 075°12'0 0.0
2018-Feb-25 16:00N 39°54' W 075°12'0 0.0
2018-Feb-25 15:30N 39°54' W 075°12'0 0.0
2018-Feb-25 15:00N 39°54' W 075°12'0 0.0
2018-Feb-25 14:30N 39°54' W 075°12'0 0.0
2018-Feb-25 14:00N 39°54' W 075°12'0 0.0
2018-Feb-25 13:30N 39°54' W 075°12'0 0.0
2018-Feb-25 13:00N 39°54' W 075°12'0 0.0
2018-Feb-25 12:30N 39°54' W 075°12'2 4.6
2018-Feb-25 12:00N 39°53' W 075°09'3 6.9
2018-Feb-25 11:30N 39°56' W 075°08'4 7.0
2018-Feb-25 11:00N 39°59' W 075°05'1 1.3
2018-Feb-25 10:30N 39°59' W 075°04'0 0.0
2018-Feb-25 10:00N 39°59' W 075°04'0 0.0
2018-Feb-25 09:30N 39°59' W 075°04'0 0.0
2018-Feb-25 09:00N 39°59' W 075°04'1 1.1
2018-Feb-25 08:30N 39°59' W 075°05'3 6.7
2018-Feb-25 08:00N 39°56' W 075°08'4 7.1
2018-Feb-25 07:30N 39°53' W 075°09'3 5.1
2018-Feb-25 07:01N 39°54' W 075°12'0 0.1
2018-Feb-25 06:30N 39°54' W 075°12'0 0.0
2018-Feb-25 06:00N 39°54' W 075°12'0 0.0
2018-Feb-25 05:30N 39°54' W 075°12'0 0.0
2018-Feb-25 05:01N 39°54' W 075°12'0 0.0
2018-Feb-25 04:31N 39°54' W 075°12'0 0.0
2018-Feb-25 04:00N 39°54' W 075°12'0 0.0
2018-Feb-25 03:30N 39°54' W 075°12'0 0.0
2018-Feb-25 03:00N 39°54' W 075°12'0 0.0
2018-Feb-25 02:31N 39°54' W 075°12'0 0.0
2018-Feb-25 02:00N 39°54' W 075°12'0 0.0
2018-Feb-25 01:30N 39°54' W 075°12'0 0.0
2018-Feb-25 01:00N 39°54' W 075°12'0 0.0
2018-Feb-25 00:30N 39°54' W 075°12'0 0.0
2018-Feb-25 00:00N 39°54' W 075°12'0 0.0
2018-Feb-24 23:30N 39°54' W 075°12'0 0.0
2018-Feb-24 23:00N 39°54' W 075°12'0 0.0
2018-Feb-24 22:30N 39°54' W 075°12'0 0.0
2018-Feb-24 22:00N 39°54' W 075°12'0 0.0
2018-Feb-24 21:30N 39°54' W 075°12'0 0.0
2018-Feb-24 21:00N 39°54' W 075°12'0 0.0
2018-Feb-24 20:30N 39°54' W 075°12'0 0.0
2018-Feb-24 20:00N 39°54' W 075°12'0 0.0
2018-Feb-24 19:30N 39°54' W 075°12'0 0.0
2018-Feb-24 19:00N 39°54' W 075°12'0 0.0
2018-Feb-24 18:30N 39°54' W 075°12'0 0.0
2018-Feb-24 18:00N 39°54' W 075°12'0 0.0
2018-Feb-24 17:30N 39°54' W 075°12'0 0.0
2018-Feb-24 17:00N 39°54' W 075°12'0 0.0
2018-Feb-24 16:30N 39°54' W 075°12'0 0.1
2018-Feb-24 16:00N 39°54' W 075°12'0 0.1
2018-Feb-24 15:30N 39°54' W 075°12'0 0.0
2018-Feb-24 15:00N 39°54' W 075°12'0 0.2
2018-Feb-24 14:27N 39°54' W 075°12'0 0.0
2018-Feb-24 14:00N 39°54' W 075°12'0 1.0
2018-Feb-24 13:30N 39°54' W 075°12'0 0.3
2018-Feb-24 13:00N 39°54' W 075°12'0 0.0
2018-Feb-24 12:30N 39°54' W 075°12'0 0.0
2018-Feb-24 12:00N 39°54' W 075°12'0 0.0
2018-Feb-24 11:30N 39°54' W 075°12'0 0.0
2018-Feb-24 11:00N 39°54' W 075°12'0 0.0
2018-Feb-24 10:30N 39°54' W 075°12'0 0.0
2018-Feb-24 10:00N 39°54' W 075°12'0 0.0
2018-Feb-24 09:30N 39°54' W 075°12'1 1.3
2018-Feb-24 09:00N 39°54' W 075°12'2 4.6
2018-Feb-24 08:30N 39°52' W 075°14'5 9.6
2018-Feb-24 08:00N 39°51' W 075°20'4 8.1
2018-Feb-24 07:30N 39°49' W 075°24'0 0.1
2018-Feb-24 07:00N 39°49' W 075°24'0 0.0
2018-Feb-24 06:30N 39°49' W 075°24'0 0.0
2018-Feb-24 06:00N 39°49' W 075°24'0 0.0
2018-Feb-24 05:30N 39°49' W 075°24'0 0.0
2018-Feb-24 05:00N 39°49' W 075°24'0 0.0
2018-Feb-24 04:30N 39°49' W 075°24'0 0.0
2018-Feb-24 04:00N 39°49' W 075°24'0 0.0
2018-Feb-24 03:30N 39°49' W 075°24'0 0.0
2018-Feb-24 03:00N 39°49' W 075°24'0 0.5
2018-Feb-24 02:30N 39°48' W 075°24'0 0.6
2018-Feb-24 02:01N 39°48' W 075°25'4 7.7
2018-Feb-24 01:30N 39°51' W 075°21'5 9.2
2018-Feb-24 01:00N 39°51' W 075°15'1 1.6
2018-Feb-24 00:30N 39°51' W 075°14'0 0.0
2018-Feb-24 00:01N 39°51' W 075°14'0 0.0
2018-Feb-23 23:30N 39°51' W 075°14'0 0.0
2018-Feb-23 23:00N 39°51' W 075°14'1 1.2
2018-Feb-23 22:30N 39°52' W 075°13'2 4.3
2018-Feb-23 22:00N 39°54' W 075°13'0 0.7
2018-Feb-23 21:30N 39°54' W 075°13'1 2.2
2018-Feb-23 21:00N 39°53' W 075°12'5 9.1
2018-Feb-23 20:30N 39°51' W 075°18'5 9.2
2018-Feb-23 20:00N 39°49' W 075°23'1 1.2
2018-Feb-23 19:30N 39°49' W 075°24'0 0.0
2018-Feb-23 19:00N 39°49' W 075°24'0 0.0
2018-Feb-23 18:30N 39°49' W 075°24'0 0.0
2018-Feb-23 18:00N 39°49' W 075°24'0 0.1
2018-Feb-23 17:30N 39°49' W 075°24'0 0.0
2018-Feb-23 17:00N 39°49' W 075°24'0 0.0
2018-Feb-23 16:30N 39°49' W 075°24'0 0.0
2018-Feb-23 16:00N 39°49' W 075°24'0 0.0
2018-Feb-23 15:30N 39°49' W 075°24'0 0.0
2018-Feb-23 15:00N 39°49' W 075°24'0 0.0
2018-Feb-23 14:27N 39°49' W 075°24'0 0.0
2018-Feb-23 13:59N 39°49' W 075°24'0 0.0
2018-Feb-23 13:30N 39°49' W 075°24'510.3
2018-Feb-23 13:00N 39°51' W 075°17'5 9.7
2018-Feb-23 12:30N 39°53' W 075°12'1 1.6
2018-Feb-23 12:00N 39°54' W 075°12'0 0.0
2018-Feb-23 11:30N 39°54' W 075°12'0 0.0
2018-Feb-23 11:00N 39°54' W 075°12'0 0.0
2018-Feb-23 10:30N 39°54' W 075°12'0 0.0
2018-Feb-23 10:00N 39°54' W 075°12'0 0.0
2018-Feb-23 09:30N 39°54' W 075°12'0 0.0
2018-Feb-23 09:00N 39°54' W 075°12'0 0.0
2018-Feb-23 08:30N 39°54' W 075°12'0 0.0
2018-Feb-23 08:00N 39°54' W 075°12'1 2.2
2018-Feb-23 07:30N 39°55' W 075°13'0 0.0
2018-Feb-23 07:00N 39°55' W 075°13'0 0.0
2018-Feb-23 06:30N 39°55' W 075°13'0 0.0
2018-Feb-23 06:00N 39°55' W 075°13'0 0.0
2018-Feb-23 05:30N 39°55' W 075°13'0 0.0
2018-Feb-23 05:00N 39°55' W 075°13'0 0.0
2018-Feb-23 04:30N 39°55' W 075°13'0 0.1
2018-Feb-23 04:01N 39°55' W 075°13'1 2.2
2018-Feb-23 03:30N 39°54' W 075°12'1 2.0
2018-Feb-23 03:00N 39°53' W 075°11'2 3.0
2018-Feb-23 02:29N 39°53' W 075°09'2 4.8
2018-Feb-23 02:01N 39°54' W 075°12'0 0.2
2018-Feb-23 01:30N 39°54' W 075°12'0 0.0
2018-Feb-23 01:00N 39°54' W 075°12'0 0.0
2018-Feb-23 00:30N 39°54' W 075°12'0 0.0
2018-Feb-23 00:00N 39°54' W 075°12'0 0.0
2018-Feb-22 23:30N 39°54' W 075°12'0 0.1
2018-Feb-22 23:00N 39°54' W 075°12'0 0.0
2018-Feb-22 22:30N 39°54' W 075°12'0 0.0
2018-Feb-22 22:00N 39°54' W 075°12'0 0.0
2018-Feb-22 21:30N 39°54' W 075°12'0 0.0
2018-Feb-22 21:00N 39°54' W 075°12'0 0.0
2018-Feb-22 20:30N 39°54' W 075°12'0 0.0
2018-Feb-22 20:00N 39°54' W 075°12'0 0.0
2018-Feb-22 19:30N 39°54' W 075°12'0 0.0
2018-Feb-22 19:00N 39°54' W 075°12'0 0.0
2018-Feb-22 18:30N 39°54' W 075°12'0 0.0
2018-Feb-22 18:00N 39°54' W 075°12'0 0.0
2018-Feb-22 17:30N 39°54' W 075°12'0 0.0
2018-Feb-22 17:00N 39°54' W 075°12'0 0.0
2018-Feb-22 16:30N 39°54' W 075°12'0 0.0
2018-Feb-22 16:00N 39°54' W 075°12'0 0.0
2018-Feb-22 15:30N 39°54' W 075°12'0 0.0
2018-Feb-22 15:00N 39°54' W 075°12'0 0.0
2018-Feb-22 14:30N 39°54' W 075°12'0 0.0
2018-Feb-22 14:00N 39°54' W 075°12'0 0.0
2018-Feb-22 13:30N 39°54' W 075°12'0 0.0
2018-Feb-22 13:00N 39°54' W 075°12'0 0.0
2018-Feb-22 12:30N 39°54' W 075°12'0 0.0
2018-Feb-22 12:00N 39°54' W 075°12'0 0.0
2018-Feb-22 11:30N 39°54' W 075°12'0 0.0
2018-Feb-22 11:00N 39°54' W 075°12'0 0.0
2018-Feb-22 10:30N 39°54' W 075°12'0 0.0
2018-Feb-22 10:00N 39°54' W 075°12'0 0.0
2018-Feb-22 09:30N 39°54' W 075°12'0 0.0
2018-Feb-22 09:00N 39°54' W 075°12'0 0.0
2018-Feb-22 08:30N 39°54' W 075°12'0 0.0
2018-Feb-22 08:00N 39°54' W 075°12'0 0.0
2018-Feb-22 07:30N 39°54' W 075°12'0 0.0
2018-Feb-22 07:00N 39°54' W 075°12'0 0.0
2018-Feb-22 06:30N 39°54' W 075°12'0 0.0
2018-Feb-22 06:01N 39°54' W 075°12'0 0.0
2018-Feb-22 05:30N 39°54' W 075°12'0 0.0
2018-Feb-22 05:00N 39°54' W 075°12'0 0.0
2018-Feb-22 04:30N 39°54' W 075°12'0 0.0
2018-Feb-22 04:00N 39°54' W 075°12'0 0.0
2018-Feb-22 03:30N 39°54' W 075°12'0 0.0
2018-Feb-22 03:00N 39°54' W 075°12'0 0.0
2018-Feb-22 02:30N 39°54' W 075°12'0 0.0
2018-Feb-22 02:00N 39°54' W 075°12'0 0.0
2018-Feb-22 01:30N 39°54' W 075°12'0 0.0
2018-Feb-22 01:00N 39°54' W 075°12'0 0.0
2018-Feb-22 00:30N 39°54' W 075°12'0 0.0
2018-Feb-22 00:00N 39°54' W 075°12'0 0.0
2018-Feb-21 23:30N 39°54' W 075°12'0 0.0
2018-Feb-21 23:00N 39°54' W 075°12'0 0.0
2018-Feb-21 22:30N 39°54' W 075°12'0 0.0
2018-Feb-21 22:00N 39°54' W 075°12'0 0.0
2018-Feb-21 21:30N 39°54' W 075°12'0 0.0
2018-Feb-21 21:00N 39°54' W 075°12'0 0.0
2018-Feb-21 20:30N 39°54' W 075°12'0 0.0
2018-Feb-21 20:00N 39°54' W 075°12'0 0.1
2018-Feb-21 19:30N 39°54' W 075°12'0 0.1
2018-Feb-21 19:00N 39°54' W 075°12'0 0.0
2018-Feb-21 18:30N 39°54' W 075°12'1 1.1
2018-Feb-21 18:00N 39°54' W 075°12'0 0.0
2018-Feb-21 17:30N 39°54' W 075°12'0 0.0
2018-Feb-21 17:00N 39°54' W 075°12'1 2.9
2018-Feb-21 16:30N 39°52' W 075°13'0 0.1
2018-Feb-21 16:01N 39°52' W 075°12'1 1.1
2018-Feb-21 15:31N 39°53' W 075°12'1 2.0
2018-Feb-21 15:00N 39°54' W 075°12'0 0.0
2018-Feb-21 14:30N 39°54' W 075°12'0 0.0
2018-Feb-21 14:00N 39°54' W 075°12'0 0.1
2018-Feb-21 13:30N 39°54' W 075°12'0 0.1
2018-Feb-21 13:00N 39°54' W 075°12'1 1.2
2018-Feb-21 12:31N 39°54' W 075°12'0 0.2
2018-Feb-21 12:00N 39°54' W 075°12'0 0.0
2018-Feb-21 11:31N 39°54' W 075°12'1 1.2
2018-Feb-21 11:00N 39°54' W 075°12'0 0.0
2018-Feb-21 10:30N 39°54' W 075°12'0 0.0
2018-Feb-21 10:00N 39°54' W 075°12'0 0.0
2018-Feb-21 09:31N 39°54' W 075°12'0 0.1
2018-Feb-21 09:00N 39°54' W 075°12'1 2.1
2018-Feb-21 08:30N 39°53' W 075°12'2 4.9
2018-Feb-21 08:00N 39°53' W 075°08'1 2.4
2018-Feb-21 07:30N 39°54' W 075°08'3 5.7
2018-Feb-21 07:00N 39°53' W 075°11'1 1.6
2018-Feb-21 06:30N 39°54' W 075°12'0 0.0
2018-Feb-21 06:00N 39°54' W 075°12'0 0.0
2018-Feb-21 05:30N 39°54' W 075°12'0 0.0
2018-Feb-21 05:00N 39°54' W 075°12'0 0.0
2018-Feb-21 04:30N 39°54' W 075°12'0 0.0
2018-Feb-21 04:00N 39°54' W 075°12'0 0.0
2018-Feb-21 03:30N 39°54' W 075°12'0 0.0
2018-Feb-21 03:00N 39°54' W 075°12'0 0.0
2018-Feb-21 02:30N 39°54' W 075°12'0 0.0
2018-Feb-21 02:00N 39°54' W 075°12'0 0.0
2018-Feb-21 01:30N 39°54' W 075°12'0 0.0
2018-Feb-21 01:00N 39°54' W 075°12'0 0.0
2018-Feb-21 00:31N 39°54' W 075°12'1 1.4
2018-Feb-21 00:01N 39°54' W 075°12'3 5.9
2018-Feb-20 23:30N 39°53' W 075°09'5 9.7
2018-Feb-20 23:00N 39°58' W 075°08'2 3.4
2018-Feb-20 22:30N 39°59' W 075°06'3 6.5
2018-Feb-20 22:00N 39°56' W 075°08'3 6.3
2018-Feb-20 21:29N 39°53' W 075°10'2 4.4
2018-Feb-20 21:00N 39°54' W 075°12'0 0.0
2018-Feb-20 20:30N 39°54' W 075°12'1 1.3
2018-Feb-20 20:00N 39°53' W 075°12'2 3.5
2018-Feb-20 19:29N 39°53' W 075°09'2 3.3
2018-Feb-20 19:00N 39°54' W 075°08'0 0.0
2018-Feb-20 18:30N 39°54' W 075°08'0 0.0
2018-Feb-20 18:00N 39°54' W 075°08'0 0.1
2018-Feb-20 17:30N 39°54' W 075°08'3 6.3
2018-Feb-20 17:00N 39°57' W 075°08'3 6.8
2018-Feb-20 16:30N 39°59' W 075°04'0 0.9
2018-Feb-20 16:00N 39°59' W 075°05'4 7.0
2018-Feb-20 15:30N 39°56' W 075°08'4 7.2
2018-Feb-20 15:00N 39°53' W 075°09'2 4.3
2018-Feb-20 14:30N 39°53' W 075°12'1 1.3
2018-Feb-20 14:00N 39°54' W 075°12'0 0.0
2018-Feb-20 13:30N 39°54' W 075°12'1 1.1
2018-Feb-20 13:00N 39°53' W 075°12'2 4.5
2018-Feb-20 12:30N 39°52' W 075°14'0 0.7
2018-Feb-20 12:00N 39°51' W 075°14'0 0.0
2018-Feb-20 11:30N 39°51' W 075°14'0 0.0
2018-Feb-20 11:00N 39°51' W 075°14'0 0.1
2018-Feb-20 10:30N 39°51' W 075°14'0 0.3
2018-Feb-20 10:01N 39°51' W 075°14'0 0.1
2018-Feb-20 09:30N 39°51' W 075°14'0 0.1
2018-Feb-20 09:00N 39°51' W 075°14'2 3.7
2018-Feb-20 08:30N 39°51' W 075°16'3 6.9
2018-Feb-20 08:00N 39°51' W 075°20'3 6.9
2018-Feb-20 07:30N 39°49' W 075°24'4 7.1
2018-Feb-20 07:01N 39°47' W 075°28'4 8.7
2018-Feb-20 06:30N 39°43' W 075°31'4 8.7
2018-Feb-20 06:00N 39°39' W 075°33'3 6.9
2018-Feb-20 05:30N 39°35' W 075°34'4 8.7
2018-Feb-20 05:00N 39°31' W 075°33'4 8.9
2018-Feb-20 04:30N 39°27' W 075°33'5 9.3
2018-Feb-20 04:00N 39°23' W 075°29'5 9.3
2018-Feb-20 03:30N 39°20' W 075°25'4 8.9
2018-Feb-20 03:00N 39°17' W 075°21'4 8.5
2018-Feb-20 02:30N 39°13' W 075°18'6 8.6
2018-Feb-20 01:52N 39°08' W 075°14'64 4.7
2018-Feb-19 12:04N 39°41' W 074°02'1 7.4
2018-Feb-19 11:57N 39°41' W 074°02'5 7.3
2018-Feb-19 11:16N 39°46' W 074°00'44 6.9
2018-Feb-19 04:49N 40°31' W 073°58'3 7.0
2018-Feb-19 04:26N 40°32' W 074°01'3 6.6
2018-Feb-19 03:57N 40°35' W 074°02'2 4.7
2018-Feb-19 03:30N 40°37' W 074°03'1 1.7
2018-Feb-19 03:00N 40°38' W 074°04'3 6.4
2018-Feb-19 02:30N 40°39' W 074°08'3 6.2
2018-Feb-19 02:00N 40°38' W 074°12'2 0.3
2018-Feb-18 18:46N 40°36' W 074°12'0 0.0
2018-Feb-18 18:26N 40°36' W 074°12'0 0.0
2018-Feb-18 17:55N 40°36' W 074°12'0 0.0
2018-Feb-18 13:17N 40°36' W 074°12'0 0.0
2018-Feb-18 11:16N 40°36' W 074°12'0 0.0
2018-Feb-18 10:56N 40°36' W 074°12'0 0.0
2018-Feb-18 08:11N 40°36' W 074°12'0 0.0
2018-Feb-18 05:24N 40°36' W 074°12'3 0.7
2018-Feb-18 01:22N 40°34' W 074°14'0 0.0
2018-Feb-18 00:27N 40°34' W 074°14'0 0.0
2018-Feb-17 23:11N 40°34' W 074°14'0 0.0
2018-Feb-17 22:50N 40°34' W 074°14'0 0.0
2018-Feb-17 22:20N 40°34' W 074°14'0 0.0
2018-Feb-17 22:00N 40°34' W 074°14'0 0.0
2018-Feb-17 14:59N 40°34' W 074°14'0 0.2
2018-Feb-17 14:27N 40°33' W 074°14'0 0.1
2018-Feb-17 13:58N 40°33' W 074°14'0 0.3
2018-Feb-17 13:29N 40°34' W 074°14'0 0.0
2018-Feb-17 12:17N 40°34' W 074°14'0 0.0
2018-Feb-17 11:59N 40°34' W 074°14'0 0.0
2018-Feb-17 07:49N 40°34' W 074°14'0 0.0
2018-Feb-17 07:28N 40°34' W 074°14'0 0.2
2018-Feb-17 06:50N 40°33' W 074°14'0 0.0
2018-Feb-17 06:20N 40°33' W 074°14'0 0.0
2018-Feb-17 05:53N 40°33' W 074°14'0 0.0
2018-Feb-17 05:21N 40°33' W 074°14'0 0.1
2018-Feb-17 02:22N 40°33' W 074°14'9 3.7
2018-Feb-17 00:04N 40°29' W 074°05'1 6.4
2018-Feb-16 23:52N 40°28' W 074°03'2 6.5
2018-Feb-16 23:30N 40°29' W 074°00'4 6.0
2018-Feb-16 22:53N 40°27' W 073°56'102 5.1
2018-Feb-16 02:58N 39°02' W 075°09'3 6.8
2018-Feb-16 02:29N 39°05' W 075°11'3 6.2
2018-Feb-16 01:59N 39°07' W 075°13'3 6.0
2018-Feb-16 01:30N 39°10' W 075°15'  

Dump ship's entire track history